Aeroporto :
LOGIN :

Iscrizione | Disclaimer

   EN    FR    IT 

 










Sommario :    VFR   VFR Marginale   IFR   IFR Intensivo   IFR Molto Intensivo
Visibilità : 
Base nubi : 
>= 8 km
>= 3000ft
5 / 8 km
1000 / 3000 ft
1500m / 5 km
500 / 1000 ft
800 / 1500m
200 / 500 ft
< 800m
< 200 ft
Simboli :   Temporali  Nebbia  Neve Forte  Precipitazioni Forti  Vento > 20 kt
SIGMETs :   Varie  Temporali  Ghiacco  Turbolenza  Onda orograficha  Ceneri Vulcaniche






- Altitudine del aeroporto : 55 ft
- Codice IATA : DSA


EGCN - Robin Hood Doncaster Sheffield

ULTIMO METAR :
  • 231750Z 27013KT CAVOK 06/M00 Q1020

METARs OBSOLETI :
  • 231720Z 27012KT CAVOK 06/M01 Q1020
  • 231650Z 29014KT 9999 FEW042 06/M02 Q1019
  • 231620Z 29014G24KT 9999 FEW043 07/M01 Q1018
  • 231550Z 29016KT 250V310 9999 FEW045 07/M01 Q1018
  • 231520Z 28018KT 9999 FEW047 07/M02 Q1017

TAF TAF EGCN
Valido dal 23 a 18 ore il 24 a 18 ore UTC


231659Z 2318/2418 27010KT 9999 FEW035
BECMG 2321/2324 20004KT
BECMG 2401/2404 12010KT 8000 -RA SCT003 OVC010
TEMPO 2403/2410 4000 RA OVC005
PROB30
TEMPO 2403/2409 1200 RASN OVC002
BECMG 2410/2413 22012KT 9999 NSW SCT040
BECMG 2413/2416 26018G28KT



MetMap, La meteo Aeronautica in un colpo d'occhio ! - Copyright ORBIFLY Dicembre 2007 - Disclaimer

ORBIFLY MET'MAP TEAM :

Programmazione e sviluppo : Alexandra Zaïnal
Concezione : Baudouin d'Aumeries
Aiuto per la programmazione : Marc-Olivier Méhu
Supporto tecnico e logistico : Manuel Goepfert
Aiuto per la traduzione : Arnaldo La Scala

Contatto : metmap@orbifly.com




FONTI E CREDITI :

   NOAA